createdAt,value
2018-03-26T00:00:25.747Z,7.50
2018-03-26T00:02:54.037Z,7.50
2018-03-26T00:05:22.369Z,7.40
2018-03-26T00:07:51.496Z,7.30
2018-03-26T00:10:19.779Z,7.30
2018-03-26T00:12:48.062Z,7.30
2018-03-26T00:15:16.387Z,7.30
2018-03-26T00:17:45.415Z,7.20
2018-03-26T00:20:13.749Z,7.20
2018-03-26T00:22:41.987Z,7.20
2018-03-26T00:25:10.265Z,7.20
2018-03-26T00:27:38.526Z,7.20
2018-03-26T00:30:06.812Z,7.20
2018-03-26T00:32:35.083Z,7.20
2018-03-26T00:35:03.361Z,7.10
2018-03-26T00:37:31.619Z,7.10
2018-03-26T00:39:59.904Z,7.10
2018-03-26T00:42:28.261Z,7.00
2018-03-26T00:44:56.547Z,7.00
2018-03-26T00:47:24.812Z,6.90
2018-03-26T00:49:53.074Z,6.90
2018-03-26T00:52:21.400Z,6.80
2018-03-26T00:54:49.783Z,6.80
2018-03-26T00:57:18.046Z,6.70
2018-03-26T00:59:46.377Z,6.70
2018-03-26T01:02:15.402Z,6.60
2018-03-26T01:04:43.668Z,6.60
2018-03-26T01:07:11.957Z,6.60
2018-03-26T01:09:40.211Z,6.50
2018-03-26T01:12:08.554Z,6.40
2018-03-26T01:14:36.816Z,6.40
2018-03-26T01:17:05.927Z,6.30
2018-03-26T01:19:34.960Z,6.20
2018-03-26T01:22:03.231Z,6.20
2018-03-26T01:24:31.484Z,6.30
2018-03-26T01:26:59.774Z,6.20
2018-03-26T01:29:28.020Z,6.20
2018-03-26T01:31:56.327Z,6.20
2018-03-26T01:34:24.682Z,6.10
2018-03-26T01:36:52.987Z,6.10
2018-03-26T01:39:21.230Z,6.00
2018-03-26T01:41:50.267Z,6.00
2018-03-26T01:44:18.650Z,6.00
2018-03-26T01:46:46.909Z,6.00
2018-03-26T01:49:15.327Z,6.00
2018-03-26T01:51:43.563Z,6.10
2018-03-26T01:54:11.836Z,6.10
2018-03-26T01:56:40.092Z,6.10
2018-03-26T01:59:08.353Z,6.10
2018-03-26T02:01:36.612Z,6.10
2018-03-26T02:04:05.640Z,6.10
2018-03-26T02:06:33.895Z,6.10
2018-03-26T02:09:02.157Z,6.10
2018-03-26T02:11:31.168Z,6.00
2018-03-26T02:13:59.454Z,6.00
2018-03-26T02:16:27.715Z,6.00
2018-03-26T02:18:55.997Z,6.00
2018-03-26T02:21:24.238Z,6.00
2018-03-26T02:23:53.258Z,6.00
2018-03-26T02:26:21.704Z,5.90
2018-03-26T02:28:49.955Z,6.00
2018-03-26T02:31:18.374Z,5.90
2018-03-26T02:33:47.387Z,5.90
2018-03-26T02:36:15.677Z,5.80
2018-03-26T02:38:43.964Z,5.90
2018-03-26T02:41:12.218Z,5.90
2018-03-26T02:43:40.505Z,5.90
2018-03-26T02:46:08.773Z,5.90
2018-03-26T02:48:37.028Z,5.80
2018-03-26T02:51:05.300Z,5.80
2018-03-26T02:53:33.579Z,5.80
2018-03-26T02:56:01.826Z,5.70
2018-03-26T02:58:30.901Z,5.60
2018-03-26T03:00:59.338Z,5.50
2018-03-26T03:03:27.624Z,5.60
2018-03-26T03:05:55.870Z,5.50
2018-03-26T03:08:24.144Z,5.50
2018-03-26T03:10:53.151Z,5.40
2018-03-26T03:13:21.566Z,5.30
2018-03-26T03:15:49.815Z,5.40
2018-03-26T03:18:18.089Z,5.30
2018-03-26T03:20:46.461Z,5.30
2018-03-26T03:23:14.895Z,5.30
2018-03-26T03:25:43.244Z,5.30
2018-03-26T03:28:11.535Z,5.30
2018-03-26T03:30:39.779Z,5.30
2018-03-26T03:33:08.167Z,5.30
2018-03-26T03:35:36.430Z,5.30
2018-03-26T03:38:04.684Z,5.20
2018-03-26T03:40:32.951Z,5.20
2018-03-26T03:43:01.227Z,5.10
2018-03-26T03:45:29.626Z,5.10
2018-03-26T03:47:57.925Z,5.00
2018-03-26T03:50:26.197Z,4.90
2018-03-26T03:52:54.492Z,4.90
2018-03-26T03:55:22.811Z,4.80
2018-03-26T03:57:51.103Z,4.80
2018-03-26T04:00:19.450Z,4.70
2018-03-26T04:02:48.474Z,4.70
2018-03-26T04:05:16.819Z,4.60
2018-03-26T04:07:45.075Z,4.60
2018-03-26T04:10:15.406Z,4.50
2018-03-26T04:12:44.569Z,4.50
2018-03-26T04:15:12.869Z,4.40
2018-03-26T04:17:41.127Z,4.40
2018-03-26T04:20:09.367Z,4.40
2018-03-26T04:22:37.737Z,4.30
2018-03-26T04:25:06.137Z,4.20
2018-03-26T04:27:34.440Z,4.20
2018-03-26T04:30:02.719Z,4.10
2018-03-26T04:32:31.783Z,4.00
2018-03-26T04:35:00.094Z,4.00
2018-03-26T04:37:29.183Z,4.00
2018-03-26T04:39:57.456Z,3.90
2018-03-26T04:42:25.707Z,3.90
2018-03-26T04:44:53.968Z,3.90
2018-03-26T04:47:22.258Z,3.80
2018-03-26T04:49:50.528Z,3.80
2018-03-26T04:52:18.804Z,3.80
2018-03-26T04:54:47.095Z,3.80
2018-03-26T04:57:15.369Z,3.80
2018-03-26T04:59:43.651Z,3.80
2018-03-26T05:02:12.007Z,3.80
2018-03-26T05:04:40.248Z,3.80
2018-03-26T05:07:08.520Z,3.70
2018-03-26T05:09:36.804Z,3.70
2018-03-26T05:12:05.065Z,3.60
2018-03-26T05:14:33.331Z,3.60
2018-03-26T05:17:01.631Z,3.60
2018-03-26T05:19:29.952Z,3.50
2018-03-26T05:21:58.231Z,3.50
2018-03-26T05:24:27.712Z,3.40
2018-03-26T05:26:56.007Z,3.40
2018-03-26T05:29:25.067Z,3.50
2018-03-26T05:31:53.475Z,3.40
2018-03-26T05:34:22.529Z,3.50
2018-03-26T05:36:50.795Z,3.40
2018-03-26T05:39:19.089Z,3.50
2018-03-26T05:41:47.367Z,3.60
2018-03-26T05:44:15.683Z,3.60
2018-03-26T05:46:44.711Z,3.70
2018-03-26T05:49:13.042Z,3.60
2018-03-26T05:51:41.390Z,3.70
2018-03-26T05:54:09.675Z,3.70
2018-03-26T05:56:37.988Z,3.80
2018-03-26T05:59:06.299Z,3.80
2018-03-26T06:01:34.739Z,3.90
2018-03-26T06:04:03.775Z,3.90
2018-03-26T06:06:32.064Z,3.90
2018-03-26T06:09:00.319Z,4.00
2018-03-26T06:11:28.688Z,4.00
2018-03-26T06:13:56.967Z,4.00
2018-03-26T06:16:25.246Z,4.10
2018-03-26T06:18:53.540Z,4.10
2018-03-26T06:21:21.802Z,4.10
2018-03-26T06:23:50.068Z,4.20
2018-03-26T06:26:18.344Z,4.20
2018-03-26T06:28:46.614Z,4.20
2018-03-26T06:31:14.883Z,4.20
2018-03-26T06:33:43.144Z,4.20
2018-03-26T06:36:11.421Z,4.20
2018-03-26T06:38:39.669Z,4.20
2018-03-26T06:41:08.723Z,4.20
2018-03-26T06:43:36.978Z,4.20
2018-03-26T06:46:05.262Z,4.30
2018-03-26T06:48:33.584Z,4.30
2018-03-26T06:51:01.920Z,4.40
2018-03-26T06:53:30.193Z,4.40
2018-03-26T06:55:58.494Z,4.40
2018-03-26T06:58:26.763Z,4.50
2018-03-26T07:00:55.074Z,4.50
2018-03-26T07:03:24.276Z,4.70
2018-03-26T07:05:53.295Z,4.90
2018-03-26T07:08:21.558Z,4.90
2018-03-26T07:10:49.824Z,5.10
2018-03-26T07:13:18.110Z,5.20
2018-03-26T07:15:46.413Z,5.30
2018-03-26T07:18:14.776Z,5.40
2018-03-26T07:20:43.044Z,5.50
2018-03-26T07:23:11.382Z,5.60
2018-03-26T07:25:40.401Z,5.70
2018-03-26T07:28:08.655Z,5.60
2018-03-26T07:30:37.692Z,5.70
2018-03-26T07:33:05.969Z,5.60
2018-03-26T07:35:34.299Z,5.70
2018-03-26T07:38:03.337Z,5.60
2018-03-26T07:40:31.605Z,5.60
2018-03-26T07:42:59.912Z,5.50
2018-03-26T07:45:28.693Z,5.50
2018-03-26T07:47:56.955Z,5.50
2018-03-26T07:50:25.233Z,5.50
2018-03-26T07:52:53.494Z,5.50
2018-03-26T07:55:21.775Z,5.50
2018-03-26T07:57:50.040Z,5.50
2018-03-26T08:00:18.328Z,5.60
2018-03-26T08:02:46.651Z,5.60
2018-03-26T08:05:15.680Z,5.50
2018-03-26T08:07:43.944Z,5.50
2018-03-26T08:10:12.224Z,5.50
2018-03-26T08:12:40.533Z,5.50
2018-03-26T08:15:08.932Z,5.50
2018-03-26T08:17:37.213Z,5.50
2018-03-26T08:20:05.483Z,5.40
2018-03-26T08:22:33.809Z,5.50
2018-03-26T08:25:02.069Z,5.60
2018-03-26T08:27:30.420Z,5.60
2018-03-26T08:29:59.565Z,5.80
2018-03-26T08:32:27.827Z,5.80
2018-03-26T08:34:56.226Z,5.90
2018-03-26T08:37:24.544Z,5.90
2018-03-26T08:39:53.612Z,6.10
2018-03-26T08:42:21.902Z,6.10
2018-03-26T08:44:50.149Z,6.20
2018-03-26T08:47:18.408Z,6.30
2018-03-26T08:49:46.827Z,6.40
2018-03-26T08:52:15.004Z,6.50
2018-03-26T08:54:43.359Z,6.60
2018-03-26T08:57:11.638Z,6.60
2018-03-26T08:59:39.900Z,6.80
2018-03-26T09:02:08.243Z,6.80
2018-03-26T09:04:36.524Z,6.90
2018-03-26T09:07:04.799Z,7.00
2018-03-26T09:09:33.124Z,7.10
2018-03-26T09:12:01.453Z,7.20
2018-03-26T09:14:29.680Z,7.30
2018-03-26T09:16:58.014Z,7.40
2018-03-26T09:19:26.392Z,7.50
2018-03-26T09:21:54.680Z,7.60
2018-03-26T09:24:22.940Z,7.70
2018-03-26T09:26:51.385Z,7.80
2018-03-26T09:29:20.388Z,8.00
2018-03-26T09:31:48.671Z,7.90
2018-03-26T09:34:16.970Z,8.10
2018-03-26T09:36:45.253Z,8.20
2018-03-26T09:39:13.535Z,8.30
2018-03-26T09:41:41.826Z,8.40
2018-03-26T09:44:10.072Z,8.40
2018-03-26T09:46:38.380Z,8.60
2018-03-26T09:49:06.678Z,8.60
2018-03-26T09:51:35.682Z,8.90
2018-03-26T09:54:03.954Z,8.80
2018-03-26T09:56:32.224Z,9.00
2018-03-26T09:59:01.329Z,9.10
2018-03-26T10:01:30.344Z,9.30
2018-03-26T10:03:58.624Z,9.20
2018-03-26T10:06:26.967Z,9.30
2018-03-26T10:08:55.248Z,9.40
2018-03-26T10:11:23.755Z,9.50
2018-03-26T10:13:52.019Z,9.70
2018-03-26T10:16:20.285Z,9.80
2018-03-26T10:18:49.887Z,9.90
2018-03-26T10:21:18.735Z,10.00
2018-03-26T10:23:47.012Z,10.10
2018-03-26T10:26:15.280Z,10.10
2018-03-26T10:28:43.571Z,10.20
2018-03-26T10:31:11.860Z,10.30
2018-03-26T10:33:40.072Z,10.30
2018-03-26T10:36:08.349Z,10.40
2018-03-26T10:38:36.615Z,10.40
2018-03-26T10:41:04.938Z,10.40
2018-03-26T10:43:33.216Z,10.40
2018-03-26T10:46:01.510Z,10.50
2018-03-26T10:48:29.805Z,10.50
2018-03-26T10:50:58.847Z,10.90
2018-03-26T10:53:27.101Z,10.80
2018-03-26T10:55:55.383Z,11.00
2018-03-26T10:58:23.669Z,11.10
2018-03-26T11:00:51.920Z,11.20
2018-03-26T11:03:20.210Z,11.40
2018-03-26T11:05:48.479Z,11.30
2018-03-26T11:08:16.757Z,11.40
2018-03-26T11:10:45.176Z,11.30
2018-03-26T11:13:13.420Z,11.30
2018-03-26T11:15:41.684Z,11.30
2018-03-26T11:18:09.969Z,11.20
2018-03-26T11:20:38.251Z,11.20
2018-03-26T11:23:06.524Z,11.20
2018-03-26T11:25:34.997Z,11.20
2018-03-26T11:28:04.161Z,11.20
2018-03-26T11:30:32.344Z,11.20
2018-03-26T11:33:00.634Z,11.20
2018-03-26T11:35:28.919Z,11.10
2018-03-26T11:37:57.211Z,11.10
2018-03-26T11:40:25.711Z,11.10
2018-03-26T11:42:54.317Z,11.10
2018-03-26T11:45:22.592Z,11.20
2018-03-26T11:47:50.992Z,11.20
2018-03-26T11:50:19.322Z,11.40
2018-03-26T11:52:48.364Z,11.40
2018-03-26T11:55:16.720Z,11.40
2018-03-26T11:57:44.904Z,11.50
2018-03-26T12:00:13.304Z,11.60
2018-03-26T12:02:43.125Z,11.80
2018-03-26T12:05:11.437Z,11.80
2018-03-26T12:07:39.861Z,11.90
2018-03-26T12:10:08.262Z,12.00
2018-03-26T12:12:36.583Z,12.00
2018-03-26T12:15:04.929Z,12.00
2018-03-26T12:17:33.162Z,12.10
2018-03-26T12:20:13.379Z,12.10
2018-03-26T12:22:42.509Z,12.30
2018-03-26T12:25:16.476Z,12.20
2018-03-26T12:27:56.543Z,12.40
2018-03-26T12:30:24.780Z,12.50
2018-03-26T12:32:53.044Z,12.50
2018-03-26T12:35:33.273Z,12.60
2018-03-26T12:38:01.505Z,12.60
2018-03-26T12:40:42.366Z,12.70
2018-03-26T12:43:10.752Z,12.70
2018-03-26T12:45:51.074Z,12.70
2018-03-26T12:48:20.404Z,12.70
2018-03-26T12:51:01.027Z,12.70
2018-03-26T12:53:29.259Z,12.60
2018-03-26T12:55:58.506Z,12.50
2018-03-26T12:58:39.133Z,12.60
2018-03-26T13:01:19.211Z,12.70
2018-03-26T13:03:47.455Z,12.70
2018-03-26T13:06:15.744Z,12.90
2018-03-26T13:08:44.026Z,12.90
2018-03-26T13:11:12.379Z,13.00
2018-03-26T13:13:40.755Z,13.00
2018-03-26T13:16:09.159Z,13.00
2018-03-26T13:18:37.431Z,13.10
2018-03-26T13:21:05.742Z,13.10
2018-03-26T13:23:34.800Z,13.10
2018-03-26T13:26:03.076Z,13.10
2018-03-26T13:28:31.394Z,13.00
2018-03-26T13:30:59.641Z,12.90
2018-03-26T13:33:28.039Z,13.00
2018-03-26T13:35:57.087Z,13.00
2018-03-26T13:38:25.363Z,13.00
2018-03-26T13:40:53.643Z,13.00
2018-03-26T13:43:21.928Z,13.20
2018-03-26T13:45:50.196Z,13.20
2018-03-26T13:48:18.506Z,13.30
2018-03-26T13:50:46.736Z,13.40
2018-03-26T13:53:15.006Z,13.40
2018-03-26T13:55:43.326Z,13.50
2018-03-26T13:58:11.551Z,13.50
2018-03-26T14:00:39.823Z,13.60
2018-03-26T14:03:08.069Z,13.50
2018-03-26T14:05:37.107Z,13.50
2018-03-26T14:08:05.363Z,13.50
2018-03-26T14:10:45.759Z,13.40
2018-03-26T14:13:25.860Z,13.40
2018-03-26T14:16:06.140Z,13.50
2018-03-26T14:18:34.682Z,13.40
2018-03-26T14:21:04.267Z,13.60
2018-03-26T14:23:32.628Z,13.60
2018-03-26T14:26:01.025Z,13.70
2018-03-26T14:28:29.285Z,13.80
2018-03-26T14:30:57.571Z,13.80
2018-03-26T14:33:25.842Z,13.50
2018-03-26T14:35:54.248Z,13.50
2018-03-26T14:38:23.443Z,13.30
2018-03-26T14:40:52.542Z,13.20
2018-03-26T14:43:21.729Z,13.30
2018-03-26T14:45:50.956Z,13.20
2018-03-26T14:48:19.211Z,13.20
2018-03-26T14:50:48.630Z,13.30
2018-03-26T14:53:17.166Z,13.30
2018-03-26T14:55:45.452Z,13.40
2018-03-26T14:58:14.491Z,13.30
2018-03-26T15:00:42.759Z,13.30
2018-03-26T15:03:11.775Z,13.20
2018-03-26T15:05:40.020Z,13.20
2018-03-26T15:08:12.517Z,13.00
2018-03-26T15:10:42.183Z,12.80
2018-03-26T15:13:10.396Z,12.80
2018-03-26T15:15:38.678Z,12.70
2018-03-26T15:18:08.091Z,12.40
2018-03-26T15:20:36.366Z,12.40
2018-03-26T15:23:04.634Z,12.20
2018-03-26T15:25:33.039Z,12.10
2018-03-26T15:28:01.343Z,12.10
2018-03-26T15:30:29.609Z,12.00
2018-03-26T15:32:57.896Z,12.00
2018-03-26T15:35:26.191Z,12.00
2018-03-26T15:37:54.502Z,12.00
2018-03-26T15:40:22.951Z,12.10
2018-03-26T15:42:51.301Z,12.00
2018-03-26T15:45:19.646Z,12.00
2018-03-26T15:47:47.892Z,12.00
2018-03-26T15:50:16.174Z,12.00
2018-03-26T15:52:44.481Z,12.00
2018-03-26T15:55:12.918Z,12.00
2018-03-26T15:57:41.268Z,12.00
2018-03-26T16:00:10.286Z,12.00
2018-03-26T16:02:38.598Z,11.90
2018-03-26T16:05:06.827Z,12.00
2018-03-26T16:07:35.147Z,12.00
2018-03-26T16:10:04.244Z,12.00
2018-03-26T16:12:32.460Z,11.90
2018-03-26T16:15:00.734Z,12.00
2018-03-26T16:17:29.107Z,12.00
2018-03-26T16:19:57.319Z,12.00
2018-03-26T16:22:25.581Z,12.10
2018-03-26T16:24:53.871Z,12.10
2018-03-26T16:27:22.164Z,12.20
2018-03-26T16:29:50.827Z,12.20
2018-03-26T16:32:19.074Z,12.20
2018-03-26T16:34:47.403Z,12.20
2018-03-26T16:37:15.711Z,12.20
2018-03-26T16:39:44.706Z,12.20
2018-03-26T16:42:27.207Z,12.20
2018-03-26T16:44:55.488Z,12.20
2018-03-26T16:47:23.726Z,12.30
2018-03-26T16:49:52.764Z,12.20
2018-03-26T16:52:21.035Z,12.20
2018-03-26T16:54:49.332Z,12.20
2018-03-26T16:57:17.693Z,12.20
2018-03-26T16:59:45.959Z,12.20
2018-03-26T17:02:14.295Z,12.10
2018-03-26T17:04:42.628Z,12.20
2018-03-26T17:07:10.872Z,12.10
2018-03-26T17:09:39.879Z,12.00
2018-03-26T17:12:08.124Z,12.00
2018-03-26T17:14:37.220Z,12.00
2018-03-26T17:17:06.328Z,12.00
2018-03-26T17:19:34.728Z,11.90
2018-03-26T17:22:03.131Z,12.00
2018-03-26T17:24:32.270Z,11.90
2018-03-26T17:27:00.648Z,11.90
2018-03-26T17:29:29.686Z,11.90
2018-03-26T17:31:57.972Z,11.80
2018-03-26T17:34:26.280Z,11.80
2018-03-26T17:36:54.646Z,11.80
2018-03-26T17:39:22.898Z,11.80
2018-03-26T17:41:51.208Z,11.70
2018-03-26T17:44:20.256Z,11.60
2018-03-26T17:46:48.539Z,11.60
2018-03-26T17:49:16.816Z,11.60
2018-03-26T17:51:45.128Z,11.50
2018-03-26T17:54:14.312Z,11.30
2018-03-26T17:56:42.606Z,11.30
2018-03-26T17:59:11.681Z,11.20
2018-03-26T18:01:39.941Z,11.20
2018-03-26T18:04:09.224Z,11.20
2018-03-26T18:06:37.536Z,11.20
2018-03-26T18:09:06.578Z,11.20
2018-03-26T18:11:34.853Z,11.10
2018-03-26T18:14:03.162Z,11.10
2018-03-26T18:16:31.452Z,11.10
2018-03-26T18:18:59.714Z,10.90
2018-03-26T18:21:28.223Z,10.90
2018-03-26T18:23:57.281Z,10.70
2018-03-26T18:26:25.577Z,10.60
2018-03-26T18:28:53.846Z,10.60
2018-03-26T18:31:23.048Z,10.40
2018-03-26T18:33:51.263Z,10.30
2018-03-26T18:36:19.567Z,10.10
2018-03-26T18:38:47.858Z,9.80
2018-03-26T18:41:16.206Z,9.70
2018-03-26T18:43:44.487Z,9.60
2018-03-26T18:46:12.815Z,9.50
2018-03-26T18:48:41.866Z,9.50
2018-03-26T18:51:10.130Z,9.40
2018-03-26T18:53:38.417Z,9.40
2018-03-26T18:56:06.662Z,9.40
2018-03-26T18:58:35.135Z,9.30
2018-03-26T19:01:03.515Z,9.30
2018-03-26T19:03:31.793Z,9.30
2018-03-26T19:06:00.074Z,9.40
2018-03-26T19:08:28.319Z,9.40
2018-03-26T19:10:57.333Z,9.40
2018-03-26T19:13:25.589Z,9.40
2018-03-26T19:15:54.673Z,9.30
2018-03-26T19:18:23.688Z,9.30
2018-03-26T19:20:52.098Z,9.20
2018-03-26T19:23:20.569Z,9.20
2018-03-26T19:25:48.907Z,9.30
2018-03-26T19:28:17.211Z,9.20
2018-03-26T19:30:46.450Z,9.10
2018-03-26T19:33:14.752Z,9.00
2018-03-26T19:35:43.798Z,9.00
2018-03-26T19:38:12.050Z,8.90
2018-03-26T19:40:40.315Z,9.00
2018-03-26T19:43:08.605Z,9.00
2018-03-26T19:45:36.946Z,8.90
2018-03-26T19:48:06.013Z,8.80
2018-03-26T19:50:34.288Z,8.70
2018-03-26T19:53:02.551Z,8.80
2018-03-26T19:55:30.808Z,8.80
2018-03-26T19:57:59.085Z,8.80
2018-03-26T20:00:28.168Z,8.70
2018-03-26T20:02:56.472Z,8.60
2018-03-26T20:05:24.863Z,8.60
2018-03-26T20:07:53.148Z,8.50
2018-03-26T20:10:21.447Z,8.50
2018-03-26T20:12:49.741Z,8.40
2018-03-26T20:15:18.002Z,8.30
2018-03-26T20:17:47.069Z,8.10
2018-03-26T20:20:15.353Z,8.10
2018-03-26T20:22:44.373Z,8.00
2018-03-26T20:25:12.632Z,8.00
2018-03-26T20:27:41.083Z,7.90
2018-03-26T20:30:09.353Z,7.80
2018-03-26T20:32:38.472Z,7.60
2018-03-26T20:35:07.584Z,7.50
2018-03-26T20:37:35.853Z,7.40
2018-03-26T20:40:04.165Z,7.50
2018-03-26T20:42:33.685Z,7.40
2018-03-26T20:45:02.234Z,7.30
2018-03-26T20:47:30.480Z,7.20
2018-03-26T20:49:58.767Z,7.20
2018-03-26T20:52:27.047Z,7.10
2018-03-26T20:54:55.373Z,7.10
2018-03-26T20:57:23.834Z,7.00
2018-03-26T20:59:52.111Z,7.00
2018-03-26T21:02:20.568Z,6.90
2018-03-26T21:04:51.780Z,6.90
2018-03-26T21:07:20.957Z,6.90
2018-03-26T21:09:49.175Z,6.80
2018-03-26T21:12:17.683Z,6.80
2018-03-26T21:14:46.034Z,6.80
2018-03-26T21:17:14.311Z,6.70
2018-03-26T21:19:42.595Z,6.70
2018-03-26T21:22:10.883Z,6.60
2018-03-26T21:24:39.291Z,6.60
2018-03-26T21:27:07.741Z,6.50
2018-03-26T21:29:35.995Z,6.50
2018-03-26T21:32:04.436Z,6.50
2018-03-26T21:34:33.648Z,6.40
2018-03-26T21:37:01.955Z,6.40
2018-03-26T21:39:30.229Z,6.40
2018-03-26T21:41:58.504Z,6.30
2018-03-26T21:44:26.779Z,6.30
2018-03-26T21:46:55.057Z,6.30
2018-03-26T21:49:23.356Z,6.20
2018-03-26T21:51:51.660Z,6.20
2018-03-26T21:54:20.683Z,6.10
2018-03-26T21:56:48.963Z,6.00
2018-03-26T22:01:52.491Z,6.00
2018-03-26T22:04:20.824Z,5.90
2018-03-26T22:06:49.839Z,5.90
2018-03-26T22:09:18.112Z,5.90
2018-03-26T22:11:46.377Z,5.90
2018-03-26T22:14:14.651Z,5.80
2018-03-26T22:16:42.912Z,5.80
2018-03-26T22:19:11.952Z,5.70
2018-03-26T22:21:40.206Z,5.70
2018-03-26T22:24:08.468Z,5.70
2018-03-26T22:26:36.807Z,5.70
2018-03-26T22:29:05.074Z,5.60
2018-03-26T22:31:33.457Z,5.60
2018-03-26T22:34:01.720Z,5.60
2018-03-26T22:36:29.992Z,5.60
2018-03-26T22:38:58.247Z,5.60
2018-03-26T22:41:26.635Z,5.60
2018-03-26T22:43:54.915Z,5.50
2018-03-26T22:46:23.192Z,5.50
2018-03-26T22:48:51.456Z,5.50
2018-03-26T22:51:20.499Z,5.40
2018-03-26T22:53:49.797Z,5.40
2018-03-26T22:56:18.826Z,5.40
2018-03-26T22:58:47.101Z,5.30
2018-03-26T23:01:15.370Z,5.40
2018-03-26T23:03:43.622Z,5.40
2018-03-26T23:06:12.653Z,5.40
2018-03-26T23:08:41.024Z,5.30
2018-03-26T23:11:09.330Z,5.40
2018-03-26T23:13:37.605Z,5.40
2018-03-26T23:16:05.907Z,5.40
2018-03-26T23:18:34.955Z,5.50
2018-03-26T23:34:03.368Z,5.40
2018-03-26T23:36:32.401Z,5.20
2018-03-26T23:39:00.663Z,5.20
2018-03-26T23:41:28.930Z,5.20
2018-03-26T23:43:57.223Z,5.20
2018-03-26T23:46:25.550Z,5.20
2018-03-26T23:48:54.639Z,5.20
2018-03-26T23:51:22.891Z,5.10
2018-03-26T23:53:51.168Z,5.20
2018-03-26T23:56:19.611Z,5.20
2018-03-26T23:58:47.910Z,5.20
